TimeCST,TemperatureF,Dew PointF,Humidity,Sea Level PressureIn,VisibilityMPH,Wind Direction,Wind SpeedMPH,Gust SpeedMPH,PrecipitationIn,Events,Conditions,WindDirDegrees,DateUTC
12:54 AM,42.1,39.0,89,30.17,10.0,North,10.4,-,N/A,,Overcast,10,2013-01-14 06:54:00
1:14 AM,42.8,37.4,81,30.18,10.0,North,9.2,-,N/A,,Overcast,360,2013-01-14 07:14:00
1:54 AM,43.0,37.9,82,30.17,10.0,North,12.7,-,N/A,,Overcast,10,2013-01-14 07:54:00
2:54 AM,42.1,37.9,85,30.17,10.0,North,11.5,21.9,0.00,,Overcast,10,2013-01-14 08:54:00
4:54 AM,41.0,37.0,86,30.14,10.0,NNE,10.4,-,0.00,,Overcast,20,2013-01-14 10:54:00
5:24 AM,41.0,37.4,87,30.14,10.0,NNE,10.4,-,0.00,Rain-Thunderstorm,Light Thunderstorms and Rain,20,2013-01-14 11:24:00
5:54 AM,39.9,37.0,89,30.13,4.0,North,12.7,-,0.12,Rain,Rain,10,2013-01-14 11:54:00
6:47 AM,39.2,37.4,93,30.16,10.0,North,10.4,-,0.03,Rain,Light Rain,360,2013-01-14 12:47:00
6:54 AM,41.0,37.9,89,30.17,10.0,North,6.9,-,0.03,Rain,Light Rain,360,2013-01-14 12:54:00
7:54 AM,39.9,37.0,89,30.16,6.0,NNE,11.5,-,0.01,Rain,Light Rain,30,2013-01-14 13:54:00
8:26 AM,39.2,37.4,93,30.15,2.0,NNE,9.2,-,0.02,Rain,Rain,20,2013-01-14 14:26:00
8:39 AM,39.2,37.4,93,30.15,5.0,NE,9.2,-,0.04,Rain,Light Rain,40,2013-01-14 14:39:00
8:54 AM,39.9,37.0,89,30.15,9.0,NE,10.4,-,0.04,,Overcast,40,2013-01-14 14:54:00
9:06 AM,39.2,37.4,93,30.18,2.5,North,5.8,-,0.01,Rain,Rain,360,2013-01-14 15:06:00
9:11 AM,39.2,37.4,93,30.20,1.5,North,8.1,-,0.07,Rain-Thunderstorm,Heavy Thunderstorms and Rain,350,2013-01-14 15:11:00
9:42 AM,39.2,37.4,93,30.19,1.5,North,6.9,-,0.25,Rain,Heavy Rain,350,2013-01-14 15:42:00
9:50 AM,39.2,37.4,93,30.18,3.0,North,6.9,-,0.27,Rain,Light Rain,360,2013-01-14 15:50:00
9:54 AM,39.9,37.9,93,30.18,3.0,North,5.8,-,0.28,Rain,Light Rain,360,2013-01-14 15:54:00
10:13 AM,39.2,37.4,93,30.18,5.0,North,9.2,-,0.01,Rain,Light Rain,350,2013-01-14 16:13:00
10:54 AM,37.9,36.0,93,30.19,3.0,NNW,11.5,-,0.09,Rain,Rain,340,2013-01-14 16:54:00
11:00 AM,37.4,35.6,93,30.18,1.8,NNW,11.5,-,0.00,Rain,Rain,340,2013-01-14 17:00:00
11:13 AM,37.4,35.6,93,30.20,3.0,NNW,13.8,-,0.08,Rain,Rain,340,2013-01-14 17:13:00
11:54 AM,37.0,34.0,89,30.19,7.0,North,17.3,24.2,0.10,,Overcast,360,2013-01-14 17:54:00
12:51 PM,33.8,32.0,93,30.17,4.0,North,17.3,-,0.02,Rain,Light Rain,360,2013-01-14 18:51:00
12:54 PM,34.0,32.0,92,30.18,3.0,North,17.3,-,0.02,Rain,Heavy Rain,360,2013-01-14 18:54:00
1:01 PM,33.8,32.0,93,30.19,3.0,NNW,13.8,23.0,0.03,Rain,Rain,340,2013-01-14 19:01:00
1:18 PM,33.8,30.2,87,30.19,10.0,North,15.0,25.3,0.03,,Overcast,10,2013-01-14 19:18:00
1:35 PM,33.8,30.2,87,30.21,10.0,NNW,16.1,20.7,0.04,,Light Ice Pellets,330,2013-01-14 19:35:00
1:41 PM,33.8,30.2,87,30.22,10.0,NNW,17.3,23.0,0.04,,Overcast,330,2013-01-14 19:41:00
1:44 PM,33.8,30.2,87,30.20,10.0,North,13.8,23.0,0.04,,Overcast,350,2013-01-14 19:44:00
1:47 PM,33.8,30.2,87,30.20,10.0,North,15.0,23.0,0.04,,Overcast,350,2013-01-14 19:47:00
1:50 PM,33.8,30.2,87,30.20,6.0,North,13.8,23.0,0.04,Rain,Light Ice Pellets,360,2013-01-14 19:50:00
1:54 PM,33.1,30.9,92,30.21,3.0,North,16.1,20.7,0.04,,Light Ice Pellets,360,2013-01-14 19:54:00
1:58 PM,33.8,30.2,87,30.20,2.5,North,13.8,20.7,0.02,Rain,Rain,360,2013-01-14 19:58:00
2:02 PM,33.8,30.2,87,30.21,4.0,North,15.0,20.7,0.03,Rain,Light Rain,360,2013-01-14 20:02:00
2:17 PM,33.8,30.2,87,30.21,2.0,North,9.2,-,0.09,Rain,Rain,360,2013-01-14 20:17:00
2:20 PM,33.8,30.2,87,30.21,3.0,North,11.5,-,0.10,Rain,Rain,350,2013-01-14 20:20:00
2:28 PM,33.8,30.2,87,30.21,3.0,North,13.8,-,0.12,Rain,Rain,360,2013-01-14 20:28:00
2:54 PM,34.0,30.9,89,30.22,4.0,North,15.0,21.9,0.19,Rain,Rain,360,2013-01-14 20:54:00
3:02 PM,33.8,32.0,93,30.22,1.8,North,11.5,21.9,0.03,Rain,Heavy Rain,350,2013-01-14 21:02:00
3:10 PM,33.8,32.0,93,30.22,1.2,North,9.2,-,0.10,Rain,Heavy Rain,360,2013-01-14 21:10:00
3:16 PM,33.8,32.0,93,30.21,1.0,North,10.4,-,0.22,Rain,Heavy Rain,10,2013-01-14 21:16:00
3:27 PM,33.8,32.0,93,30.23,1.5,NNE,6.9,-,0.34,Rain,Heavy Rain,30,2013-01-14 21:27:00
3:37 PM,33.8,32.0,93,30.22,1.5,NNE,11.5,-,0.41,Rain,Heavy Rain,20,2013-01-14 21:37:00
3:41 PM,33.8,32.0,93,30.22,2.0,NNE,10.4,-,0.43,Rain,Rain,20,2013-01-14 21:41:00
3:46 PM,33.8,32.0,93,30.23,4.0,NNE,9.2,-,0.43,Rain,Light Rain,20,2013-01-14 21:46:00
3:54 PM,34.0,32.0,92,30.23,5.0,North,11.5,-,0.44,Rain,Light Rain,10,2013-01-14 21:54:00
4:24 PM,35.6,32.0,87,30.22,2.5,North,11.5,17.3,0.06,Rain,Rain,10,2013-01-14 22:24:00
4:33 PM,35.6,33.8,93,30.23,4.0,NNE,9.2,-,0.08,Rain,Light Rain,20,2013-01-14 22:33:00
4:54 PM,35.1,33.1,92,30.23,4.0,NNE,6.9,-,0.12,Rain,Light Rain,20,2013-01-14 22:54:00
5:45 PM,35.6,32.0,87,30.21,10.0,NNE,13.8,-,0.00,,Overcast,20,2013-01-14 23:45:00
5:54 PM,35.1,33.1,92,30.22,10.0,NNE,6.9,-,0.00,,Overcast,30,2013-01-14 23:54:00
6:11 PM,35.6,33.8,93,30.23,10.0,NE,6.9,-,N/A,,Overcast,50,2013-01-15 00:11:00
6:35 PM,35.6,33.8,93,30.22,10.0,ENE,6.9,-,N/A,,Overcast,70,2013-01-15 00:35:00
6:52 PM,35.6,33.8,93,30.20,10.0,NE,6.9,-,N/A,,Overcast,50,2013-01-15 00:52:00
6:54 PM,35.1,33.1,92,30.20,10.0,Variable,5.8,-,N/A,,Overcast,0,2013-01-15 00:54:00
7:17 PM,35.6,33.8,93,30.19,10.0,NNE,8.1,-,N/A,,Overcast,30,2013-01-15 01:17:00
7:54 PM,37.0,34.0,89,30.20,10.0,NNE,8.1,-,N/A,,Overcast,20,2013-01-15 01:54:00
8:34 PM,37.4,33.8,87,30.18,10.0,NNE,5.8,-,N/A,,Overcast,30,2013-01-15 02:34:00
8:51 PM,37.4,35.6,93,30.17,10.0,NNE,8.1,-,N/A,,Overcast,30,2013-01-15 02:51:00
8:54 PM,37.0,35.1,93,30.17,10.0,NNE,6.9,-,N/A,,Overcast,30,2013-01-15 02:54:00
9:52 PM,37.4,35.6,93,30.17,10.0,NNW,5.8,-,N/A,,Overcast,340,2013-01-15 03:52:00
9:54 PM,37.0,35.1,93,30.18,10.0,North,8.1,-,N/A,,Overcast,360,2013-01-15 03:54:00
10:54 PM,37.0,35.1,93,30.16,10.0,North,8.1,-,N/A,,Overcast,10,2013-01-15 04:54:00
11:54 PM,37.0,35.1,93,30.15,10.0,North,10.4,-,N/A,,Overcast,10,2013-01-15 05:54:00